KTEB/TEB METAR and TAF weather

Enter ICAO airport designator
Station Type Date Time Source
KTEB METAR 2022/01/26 13:51 UTC NOAA

KTEB 261351Z 34009KT 10SM CLR M06/M14 A3036 RMK AO2 SLP279 T10561144


Station Type Date Time Source
KTEB Decoded METAR 2022/01/26 13:51 UTC NOAA

TETERBORO AIRPORT, NJ, United States (KTEB) 40-52N 74-03W 7M
Jan 26, 2022 - 08:51 AM EST / 2022.01.26 1351 UTC
Wind: from the NNW (340 degrees) at 10 MPH (9 KT):0
Visibility: 10 mile(s):0
Sky conditions: clear
Temperature: 21.9 F (-5.6 C)
Windchill: 10 F (-12 C):1
Dew Point: 6.1 F (-14.4 C)
Relative Humidity: 49%
Pressure (altimeter): 30.36 in. Hg (1028 hPa)
ob: KTEB 261351Z 34009KT 10SM CLR M06/M14 A3036 RMK AO2 SLP279 T10561144
cycle: 14

Station Type Date Time Source
KTEB TAF 2022/01/26 12:33 UTC NOAA

TAF KTEB 261130Z 2612/2718 33007KT P6SM SKC
FM261500 32010G16KT P6SM SKC
FM261700 32012G19KT P6SM SCT045
FM262300 32009KT P6SM SKC
FM270500 VRB03KT P6SM SKC
FM271600 18007KT P6SM SKC

Example: see airport list